sensor_id;sensor_type;location;lat;lon;timestamp;temperature;humidity
36212;DHT22;22247;48.586;13.492;2024-03-02T00:02:12;5.90;99.90
36212;DHT22;22247;48.586;13.492;2024-03-02T00:04:37;5.80;99.90
36212;DHT22;22247;48.586;13.492;2024-03-02T00:07:02;5.90;99.90
36212;DHT22;22247;48.586;13.492;2024-03-02T00:09:27;6.00;99.90
36212;DHT22;22247;48.586;13.492;2024-03-02T00:11:52;6.00;99.90
36212;DHT22;22247;48.586;13.492;2024-03-02T00:14:17;5.90;99.90
36212;DHT22;22247;48.586;13.492;2024-03-02T00:16:42;5.80;99.90
36212;DHT22;22247;48.586;13.492;2024-03-02T00:19:07;6.00;99.90
36212;DHT22;22247;48.586;13.492;2024-03-02T00:21:33;5.90;99.90
36212;DHT22;22247;48.586;13.492;2024-03-02T00:23:58;5.80;99.90
36212;DHT22;22247;48.586;13.492;2024-03-02T00:26:24;5.70;99.90
36212;DHT22;22247;48.586;13.492;2024-03-02T00:28:48;5.80;99.90
36212;DHT22;22247;48.586;13.492;2024-03-02T00:31:15;5.60;99.90
36212;DHT22;22247;48.586;13.492;2024-03-02T00:33:43;5.70;99.90
36212;DHT22;22247;48.586;13.492;2024-03-02T00:36:08;5.70;99.90
36212;DHT22;22247;48.586;13.492;2024-03-02T00:38:34;5.70;99.90
36212;DHT22;22247;48.586;13.492;2024-03-02T00:41:02;5.80;99.90
36212;DHT22;22247;48.586;13.492;2024-03-02T00:43:44;5.80;99.90
36212;DHT22;22247;48.586;13.492;2024-03-02T00:46:14;5.90;99.90
36212;DHT22;22247;48.586;13.492;2024-03-02T00:48:46;5.70;99.90
36212;DHT22;22247;48.586;13.492;2024-03-02T00:51:12;5.70;99.90
36212;DHT22;22247;48.586;13.492;2024-03-02T00:53:37;5.80;99.90
36212;DHT22;22247;48.586;13.492;2024-03-02T00:56:02;5.90;99.90
36212;DHT22;22247;48.586;13.492;2024-03-02T00:58:26;6.00;99.90
36212;DHT22;22247;48.586;13.492;2024-03-02T01:00:51;6.00;99.90
36212;DHT22;22247;48.586;13.492;2024-03-02T01:03:16;6.00;99.90
36212;DHT22;22247;48.586;13.492;2024-03-02T01:05:43;6.00;99.90
36212;DHT22;22247;48.586;13.492;2024-03-02T01:08:09;6.10;99.90
36212;DHT22;22247;48.586;13.492;2024-03-02T01:10:34;6.10;99.90
36212;DHT22;22247;48.586;13.492;2024-03-02T01:12:59;6.20;99.90
36212;DHT22;22247;48.586;13.492;2024-03-02T01:15:23;5.90;99.90
36212;DHT22;22247;48.586;13.492;2024-03-02T01:17:48;5.90;99.90
36212;DHT22;22247;48.586;13.492;2024-03-02T01:20:13;5.90;99.90
36212;DHT22;22247;48.586;13.492;2024-03-02T01:22:37;5.80;99.90
36212;DHT22;22247;48.586;13.492;2024-03-02T01:25:02;5.80;99.90
36212;DHT22;22247;48.586;13.492;2024-03-02T01:27:27;5.80;99.90
36212;DHT22;22247;48.586;13.492;2024-03-02T01:29:52;6.00;99.90
36212;DHT22;22247;48.586;13.492;2024-03-02T01:32:17;5.80;99.90
36212;DHT22;22247;48.586;13.492;2024-03-02T01:34:42;5.70;99.90
36212;DHT22;22247;48.586;13.492;2024-03-02T01:37:06;5.70;99.90
36212;DHT22;22247;48.586;13.492;2024-03-02T01:39:31;5.60;99.90
36212;DHT22;22247;48.586;13.492;2024-03-02T01:41:56;5.60;99.90
36212;DHT22;22247;48.586;13.492;2024-03-02T01:44:20;5.50;99.90
36212;DHT22;22247;48.586;13.492;2024-03-02T01:46:45;5.40;99.90
36212;DHT22;22247;48.586;13.492;2024-03-02T01:49:10;5.70;99.90
36212;DHT22;22247;48.586;13.492;2024-03-02T01:51:34;5.70;99.90
36212;DHT22;22247;48.586;13.492;2024-03-02T01:53:59;5.60;99.90
36212;DHT22;22247;48.586;13.492;2024-03-02T01:56:24;5.40;99.90
36212;DHT22;22247;48.586;13.492;2024-03-02T01:58:48;5.50;99.90
36212;DHT22;22247;48.586;13.492;2024-03-02T02:01:13;5.30;99.90
36212;DHT22;22247;48.586;13.492;2024-03-02T02:03:38;5.20;99.90
36212;DHT22;22247;48.586;13.492;2024-03-02T02:06:02;5.30;99.90
36212;DHT22;22247;48.586;13.492;2024-03-02T02:08:27;5.30;99.90
36212;DHT22;22247;48.586;13.492;2024-03-02T02:10:52;5.30;99.90
36212;DHT22;22247;48.586;13.492;2024-03-02T02:13:17;5.30;99.90
36212;DHT22;22247;48.586;13.492;2024-03-02T02:15:41;4.90;99.90
36212;DHT22;22247;48.586;13.492;2024-03-02T02:18:06;5.20;99.90
36212;DHT22;22247;48.586;13.492;2024-03-02T02:20:31;5.00;99.90
36212;DHT22;22247;48.586;13.492;2024-03-02T02:23:03;5.00;99.90
36212;DHT22;22247;48.586;13.492;2024-03-02T02:25:29;5.20;99.90
36212;DHT22;22247;48.586;13.492;2024-03-02T02:27:54;5.10;99.90
36212;DHT22;22247;48.586;13.492;2024-03-02T02:30:27;4.90;99.90
36212;DHT22;22247;48.586;13.492;2024-03-02T02:32:52;4.80;99.90
36212;DHT22;22247;48.586;13.492;2024-03-02T02:35:17;4.70;99.90
36212;DHT22;22247;48.586;13.492;2024-03-02T02:37:43;4.00;99.90
36212;DHT22;22247;48.586;13.492;2024-03-02T02:40:08;4.70;99.90
36212;DHT22;22247;48.586;13.492;2024-03-02T02:42:33;4.70;99.90
36212;DHT22;22247;48.586;13.492;2024-03-02T02:44:58;4.70;99.90
36212;DHT22;22247;48.586;13.492;2024-03-02T02:47:22;4.80;99.90
36212;DHT22;22247;48.586;13.492;2024-03-02T02:49:47;4.90;99.90
36212;DHT22;22247;48.586;13.492;2024-03-02T02:52:11;4.70;99.90
36212;DHT22;22247;48.586;13.492;2024-03-02T02:54:37;4.90;99.90
36212;DHT22;22247;48.586;13.492;2024-03-02T02:57:02;4.90;99.90
36212;DHT22;22247;48.586;13.492;2024-03-02T02:59:27;4.90;99.90
36212;DHT22;22247;48.586;13.492;2024-03-02T03:01:52;4.90;99.90
36212;DHT22;22247;48.586;13.492;2024-03-02T03:04:17;5.20;99.90
36212;DHT22;22247;48.586;13.492;2024-03-02T03:06:42;5.10;99.90
36212;DHT22;22247;48.586;13.492;2024-03-02T03:09:07;5.40;99.90
36212;DHT22;22247;48.586;13.492;2024-03-02T03:11:32;5.50;99.90
36212;DHT22;22247;48.586;13.492;2024-03-02T03:13:56;5.60;99.90
36212;DHT22;22247;48.586;13.492;2024-03-02T03:16:21;5.50;99.90
36212;DHT22;22247;48.586;13.492;2024-03-02T03:18:46;5.60;99.90
36212;DHT22;22247;48.586;13.492;2024-03-02T03:21:13;5.50;99.90
36212;DHT22;22247;48.586;13.492;2024-03-02T03:23:37;5.60;99.90
36212;DHT22;22247;48.586;13.492;2024-03-02T03:26:02;5.50;99.90
36212;DHT22;22247;48.586;13.492;2024-03-02T03:28:28;5.60;99.90
36212;DHT22;22247;48.586;13.492;2024-03-02T03:30:53;5.40;99.90
36212;DHT22;22247;48.586;13.492;2024-03-02T03:33:18;5.30;99.90
36212;DHT22;22247;48.586;13.492;2024-03-02T03:35:42;5.20;99.90
36212;DHT22;22247;48.586;13.492;2024-03-02T03:38:07;5.20;99.90
36212;DHT22;22247;48.586;13.492;2024-03-02T03:40:31;5.20;99.90
36212;DHT22;22247;48.586;13.492;2024-03-02T03:42:56;5.20;99.90
36212;DHT22;22247;48.586;13.492;2024-03-02T03:45:21;5.20;99.90
36212;DHT22;22247;48.586;13.492;2024-03-02T03:47:45;5.40;99.90
36212;DHT22;22247;48.586;13.492;2024-03-02T03:50:10;5.40;99.90
36212;DHT22;22247;48.586;13.492;2024-03-02T03:52:35;5.40;99.90
36212;DHT22;22247;48.586;13.492;2024-03-02T03:55:00;5.40;99.90
36212;DHT22;22247;48.586;13.492;2024-03-02T03:57:24;5.40;99.90
36212;DHT22;22247;48.586;13.492;2024-03-02T03:59:49;5.40;99.90
36212;DHT22;22247;48.586;13.492;2024-03-02T04:02:14;5.20;99.90
36212;DHT22;22247;48.586;13.492;2024-03-02T04:04:39;5.30;99.90
36212;DHT22;22247;48.586;13.492;2024-03-02T04:07:03;5.50;99.90
36212;DHT22;22247;48.586;13.492;2024-03-02T04:09:28;4.90;99.90
36212;DHT22;22247;48.586;13.492;2024-03-02T04:11:53;5.40;99.90
36212;DHT22;22247;48.586;13.492;2024-03-02T04:14:18;5.10;99.90
36212;DHT22;22247;48.586;13.492;2024-03-02T04:16:43;5.20;99.90
36212;DHT22;22247;48.586;13.492;2024-03-02T04:19:07;5.20;99.90
36212;DHT22;22247;48.586;13.492;2024-03-02T04:21:32;5.30;99.90
36212;DHT22;22247;48.586;13.492;2024-03-02T04:23:57;5.30;99.90
36212;DHT22;22247;48.586;13.492;2024-03-02T04:26:23;5.30;99.90
36212;DHT22;22247;48.586;13.492;2024-03-02T04:28:48;5.30;99.90
36212;DHT22;22247;48.586;13.492;2024-03-02T04:31:12;5.40;99.90
36212;DHT22;22247;48.586;13.492;2024-03-02T04:33:37;4.80;99.90
36212;DHT22;22247;48.586;13.492;2024-03-02T04:36:02;5.30;99.90
36212;DHT22;22247;48.586;13.492;2024-03-02T04:38:27;5.30;99.90
36212;DHT22;22247;48.586;13.492;2024-03-02T04:40:53;5.30;99.90
36212;DHT22;22247;48.586;13.492;2024-03-02T04:43:18;5.20;99.90
36212;DHT22;22247;48.586;13.492;2024-03-02T04:45:43;5.10;99.90
36212;DHT22;22247;48.586;13.492;2024-03-02T04:48:08;5.10;99.90
36212;DHT22;22247;48.586;13.492;2024-03-02T04:50:34;4.90;99.90
36212;DHT22;22247;48.586;13.492;2024-03-02T04:52:58;5.00;99.90
36212;DHT22;22247;48.586;13.492;2024-03-02T04:55:23;5.10;99.90
36212;DHT22;22247;48.586;13.492;2024-03-02T04:57:53;5.20;99.90
36212;DHT22;22247;48.586;13.492;2024-03-02T05:00:21;5.10;99.90
36212;DHT22;22247;48.586;13.492;2024-03-02T05:02:46;5.20;99.90
36212;DHT22;22247;48.586;13.492;2024-03-02T05:05:11;5.30;99.90
36212;DHT22;22247;48.586;13.492;2024-03-02T05:07:35;5.20;99.90
36212;DHT22;22247;48.586;13.492;2024-03-02T05:10:00;5.20;99.90
36212;DHT22;22247;48.586;13.492;2024-03-02T05:12:25;5.20;99.90
36212;DHT22;22247;48.586;13.492;2024-03-02T05:15:08;5.10;99.90
36212;DHT22;22247;48.586;13.492;2024-03-02T05:17:34;5.20;99.90
36212;DHT22;22247;48.586;13.492;2024-03-02T05:19:59;5.00;99.90
36212;DHT22;22247;48.586;13.492;2024-03-02T05:22:23;5.20;99.90
36212;DHT22;22247;48.586;13.492;2024-03-02T05:24:48;5.20;99.90
36212;DHT22;22247;48.586;13.492;2024-03-02T05:27:12;5.10;99.90
36212;DHT22;22247;48.586;13.492;2024-03-02T05:29:37;5.30;99.90
36212;DHT22;22247;48.586;13.492;2024-03-02T05:32:02;5.20;99.90
36212;DHT22;22247;48.586;13.492;2024-03-02T05:34:26;5.00;99.90
36212;DHT22;22247;48.586;13.492;2024-03-02T05:36:51;5.00;99.90
36212;DHT22;22247;48.586;13.492;2024-03-02T05:39:16;5.10;99.90
36212;DHT22;22247;48.586;13.492;2024-03-02T05:41:40;5.00;99.90
36212;DHT22;22247;48.586;13.492;2024-03-02T05:44:05;5.10;99.90
36212;DHT22;22247;48.586;13.492;2024-03-02T05:46:30;5.10;99.90
36212;DHT22;22247;48.586;13.492;2024-03-02T05:48:55;5.00;99.90
36212;DHT22;22247;48.586;13.492;2024-03-02T05:51:20;5.20;99.90
36212;DHT22;22247;48.586;13.492;2024-03-02T05:53:45;5.40;99.90
36212;DHT22;22247;48.586;13.492;2024-03-02T05:56:10;5.20;99.90
36212;DHT22;22247;48.586;13.492;2024-03-02T05:58:36;5.00;99.90
36212;DHT22;22247;48.586;13.492;2024-03-02T06:01:31;5.10;99.90
36212;DHT22;22247;48.586;13.492;2024-03-02T06:03:56;5.20;99.90
36212;DHT22;22247;48.586;13.492;2024-03-02T06:06:22;5.20;99.90
36212;DHT22;22247;48.586;13.492;2024-03-02T06:08:47;5.10;99.90
36212;DHT22;22247;48.586;13.492;2024-03-02T06:11:11;5.10;99.90
36212;DHT22;22247;48.586;13.492;2024-03-02T06:13:36;5.10;99.90
36212;DHT22;22247;48.586;13.492;2024-03-02T06:16:00;5.20;99.90
36212;DHT22;22247;48.586;13.492;2024-03-02T06:18:25;5.20;99.90
36212;DHT22;22247;48.586;13.492;2024-03-02T06:20:50;5.10;99.90
36212;DHT22;22247;48.586;13.492;2024-03-02T06:23:14;5.40;99.90
36212;DHT22;22247;48.586;13.492;2024-03-02T06:25:39;5.40;99.90
36212;DHT22;22247;48.586;13.492;2024-03-02T06:28:06;5.40;99.90
36212;DHT22;22247;48.586;13.492;2024-03-02T06:30:31;5.30;99.90
36212;DHT22;22247;48.586;13.492;2024-03-02T06:32:56;5.40;99.90
36212;DHT22;22247;48.586;13.492;2024-03-02T06:35:21;5.40;99.90
36212;DHT22;22247;48.586;13.492;2024-03-02T06:37:45;5.20;99.90
36212;DHT22;22247;48.586;13.492;2024-03-02T06:40:10;5.30;99.90
36212;DHT22;22247;48.586;13.492;2024-03-02T06:42:35;5.40;99.90
36212;DHT22;22247;48.586;13.492;2024-03-02T06:45:00;5.50;99.90
36212;DHT22;22247;48.586;13.492;2024-03-02T06:47:25;5.60;99.90
36212;DHT22;22247;48.586;13.492;2024-03-02T06:49:49;5.50;99.90
36212;DHT22;22247;48.586;13.492;2024-03-02T06:52:15;5.50;99.90
36212;DHT22;22247;48.586;13.492;2024-03-02T06:54:39;5.60;99.90
36212;DHT22;22247;48.586;13.492;2024-03-02T06:57:04;5.50;99.90
36212;DHT22;22247;48.586;13.492;2024-03-02T06:59:31;5.50;99.90
36212;DHT22;22247;48.586;13.492;2024-03-02T07:01:56;5.60;99.90
36212;DHT22;22247;48.586;13.492;2024-03-02T07:04:21;5.60;99.90
36212;DHT22;22247;48.586;13.492;2024-03-02T07:06:45;5.80;99.90
36212;DHT22;22247;48.586;13.492;2024-03-02T07:09:10;5.60;99.90
36212;DHT22;22247;48.586;13.492;2024-03-02T07:11:35;5.50;99.90
36212;DHT22;22247;48.586;13.492;2024-03-02T07:13:59;5.60;99.90
36212;DHT22;22247;48.586;13.492;2024-03-02T07:16:24;5.50;99.90
36212;DHT22;22247;48.586;13.492;2024-03-02T07:18:57;5.40;99.90
36212;DHT22;22247;48.586;13.492;2024-03-02T07:26:13;5.50;99.90
36212;DHT22;22247;48.586;13.492;2024-03-02T07:28:42;5.40;99.90
36212;DHT22;22247;48.586;13.492;2024-03-02T07:31:10;5.50;99.90
36212;DHT22;22247;48.586;13.492;2024-03-02T07:33:36;5.30;99.90
36212;DHT22;22247;48.586;13.492;2024-03-02T07:36:04;5.60;99.90
36212;DHT22;22247;48.586;13.492;2024-03-02T07:38:28;6.10;99.90
36212;DHT22;22247;48.586;13.492;2024-03-02T07:40:58;5.80;99.90
36212;DHT22;22247;48.586;13.492;2024-03-02T07:48:19;6.40;99.90
36212;DHT22;22247;48.586;13.492;2024-03-02T09:06:21;7.20;99.90
36212;DHT22;22247;48.586;13.492;2024-03-02T09:08:48;8.00;99.90
36212;DHT22;22247;48.586;13.492;2024-03-02T09:11:16;7.50;99.90
36212;DHT22;22247;48.586;13.492;2024-03-02T09:13:43;7.10;99.90
36212;DHT22;22247;48.586;13.492;2024-03-02T09:16:08;7.30;99.90
36212;DHT22;22247;48.586;13.492;2024-03-02T09:18:37;8.40;99.90
36212;DHT22;22247;48.586;13.492;2024-03-02T09:23:33;8.00;99.90
36212;DHT22;22247;48.586;13.492;2024-03-02T09:25:58;8.40;99.90
36212;DHT22;22247;48.586;13.492;2024-03-02T09:28:23;7.90;99.90
36212;DHT22;22247;48.586;13.492;2024-03-02T09:30:47;7.50;99.90
36212;DHT22;22247;48.586;13.492;2024-03-02T09:33:17;7.20;99.90
36212;DHT22;22247;48.586;13.492;2024-03-02T09:35:44;8.50;99.90
36212;DHT22;22247;48.586;13.492;2024-03-02T09:38:11;8.10;99.90
36212;DHT22;22247;48.586;13.492;2024-03-02T09:40:40;8.40;99.90
36212;DHT22;22247;48.586;13.492;2024-03-02T12:47:37;12.90;99.90
36212;DHT22;22247;48.586;13.492;2024-03-02T12:50:06;13.10;99.90
36212;DHT22;22247;48.586;13.492;2024-03-02T12:52:36;13.30;99.90
36212;DHT22;22247;48.586;13.492;2024-03-02T12:55:06;13.80;99.90
36212;DHT22;22247;48.586;13.492;2024-03-02T12:57:32;13.00;99.90
36212;DHT22;22247;48.586;13.492;2024-03-02T13:00:04;12.90;99.90
36212;DHT22;22247;48.586;13.492;2024-03-02T13:02:33;13.60;99.90
36212;DHT22;22247;48.586;13.492;2024-03-02T13:04:58;13.70;99.90
36212;DHT22;22247;48.586;13.492;2024-03-02T13:07:24;13.50;99.90
36212;DHT22;22247;48.586;13.492;2024-03-02T13:09:50;13.60;99.90
36212;DHT22;22247;48.586;13.492;2024-03-02T13:14:42;13.90;99.90
36212;DHT22;22247;48.586;13.492;2024-03-02T13:17:09;14.10;99.90
36212;DHT22;22247;48.586;13.492;2024-03-02T13:19:34;14.10;99.90
36212;DHT22;22247;48.586;13.492;2024-03-02T13:21:58;13.80;99.90
36212;DHT22;22247;48.586;13.492;2024-03-02T13:24:31;14.00;99.90
36212;DHT22;22247;48.586;13.492;2024-03-02T13:31:55;14.20;99.90
36212;DHT22;22247;48.586;13.492;2024-03-02T13:34:19;14.20;99.90
36212;DHT22;22247;48.586;13.492;2024-03-02T13:36:48;14.30;99.90
36212;DHT22;22247;48.586;13.492;2024-03-02T13:39:17;14.20;99.90
36212;DHT22;22247;48.586;13.492;2024-03-02T13:46:45;14.50;99.90
36212;DHT22;22247;48.586;13.492;2024-03-02T13:49:10;14.30;99.90
36212;DHT22;22247;48.586;13.492;2024-03-02T13:51:34;14.50;99.90
36212;DHT22;22247;48.586;13.492;2024-03-02T13:54:06;14.40;99.90
36212;DHT22;22247;48.586;13.492;2024-03-02T13:56:33;14.50;99.90
36212;DHT22;22247;48.586;13.492;2024-03-02T13:58:58;14.70;99.90
36212;DHT22;22247;48.586;13.492;2024-03-02T15:09:43;15.40;99.90
36212;DHT22;22247;48.586;13.492;2024-03-02T15:12:09;15.00;99.90
36212;DHT22;22247;48.586;13.492;2024-03-02T15:14:37;14.70;99.90
36212;DHT22;22247;48.586;13.492;2024-03-02T15:17:02;14.70;99.90
36212;DHT22;22247;48.586;13.492;2024-03-02T15:19:27;14.40;99.90
36212;DHT22;22247;48.586;13.492;2024-03-02T15:21:52;14.30;99.90
36212;DHT22;22247;48.586;13.492;2024-03-02T15:24:16;14.10;99.90
36212;DHT22;22247;48.586;13.492;2024-03-02T15:26:41;13.90;99.90
36212;DHT22;22247;48.586;13.492;2024-03-02T15:29:05;14.00;99.90
36212;DHT22;22247;48.586;13.492;2024-03-02T15:31:30;13.70;99.90
36212;DHT22;22247;48.586;13.492;2024-03-02T15:33:54;13.70;99.90
36212;DHT22;22247;48.586;13.492;2024-03-02T15:36:21;14.10;99.90
36212;DHT22;22247;48.586;13.492;2024-03-02T15:38:45;13.90;99.90
36212;DHT22;22247;48.586;13.492;2024-03-02T15:41:10;13.70;99.90
36212;DHT22;22247;48.586;13.492;2024-03-02T15:43:35;13.80;99.90
36212;DHT22;22247;48.586;13.492;2024-03-02T15:50:55;14.10;99.90
36212;DHT22;22247;48.586;13.492;2024-03-02T15:58:13;14.10;99.90
36212;DHT22;22247;48.586;13.492;2024-03-02T16:00:38;14.10;99.90
36212;DHT22;22247;48.586;13.492;2024-03-02T16:44:18;10.90;99.90
36212;DHT22;22247;48.586;13.492;2024-03-02T16:46:42;11.00;99.90
36212;DHT22;22247;48.586;13.492;2024-03-02T16:49:09;11.50;99.90
36212;DHT22;22247;48.586;13.492;2024-03-02T16:51:43;11.20;99.90
36212;DHT22;22247;48.586;13.492;2024-03-02T16:54:08;10.90;99.90
36212;DHT22;22247;48.586;13.492;2024-03-02T16:56:40;10.50;99.90
36212;DHT22;22247;48.586;13.492;2024-03-02T16:59:04;10.50;99.90
36212;DHT22;22247;48.586;13.492;2024-03-02T17:01:29;10.40;99.90
36212;DHT22;22247;48.586;13.492;2024-03-02T17:03:54;10.20;99.90
36212;DHT22;22247;48.586;13.492;2024-03-02T17:06:21;10.20;99.90
36212;DHT22;22247;48.586;13.492;2024-03-02T17:08:45;10.00;99.90
36212;DHT22;22247;48.586;13.492;2024-03-02T17:11:12;10.00;99.90
36212;DHT22;22247;48.586;13.492;2024-03-02T17:13:36;10.00;99.90
36212;DHT22;22247;48.586;13.492;2024-03-02T17:16:01;9.90;99.90
36212;DHT22;22247;48.586;13.492;2024-03-02T17:18:26;10.10;99.90
36212;DHT22;22247;48.586;13.492;2024-03-02T17:20:50;9.90;99.90
36212;DHT22;22247;48.586;13.492;2024-03-02T17:23:15;9.80;99.90
36212;DHT22;22247;48.586;13.492;2024-03-02T17:25:42;9.90;99.90
36212;DHT22;22247;48.586;13.492;2024-03-02T17:28:26;10.00;99.90
36212;DHT22;22247;48.586;13.492;2024-03-02T17:30:53;9.90;99.90
36212;DHT22;22247;48.586;13.492;2024-03-02T17:33:20;10.00;99.90
36212;DHT22;22247;48.586;13.492;2024-03-02T17:38:14;9.90;99.90
36212;DHT22;22247;48.586;13.492;2024-03-02T17:40:41;9.70;99.90
36212;DHT22;22247;48.586;13.492;2024-03-02T17:43:07;9.70;99.90
36212;DHT22;22247;48.586;13.492;2024-03-02T17:45:32;10.20;99.90
36212;DHT22;22247;48.586;13.492;2024-03-02T17:47:56;9.40;99.90
36212;DHT22;22247;48.586;13.492;2024-03-02T17:50:21;9.40;99.90
36212;DHT22;22247;48.586;13.492;2024-03-02T17:52:48;9.20;99.90
36212;DHT22;22247;48.586;13.492;2024-03-02T17:55:15;8.50;99.90
36212;DHT22;22247;48.586;13.492;2024-03-02T17:57:48;9.10;99.90
36212;DHT22;22247;48.586;13.492;2024-03-02T18:00:19;8.80;99.90
36212;DHT22;22247;48.586;13.492;2024-03-02T18:02:51;8.90;99.90
36212;DHT22;22247;48.586;13.492;2024-03-02T18:05:35;8.90;99.90
36212;DHT22;22247;48.586;13.492;2024-03-02T18:08:15;8.00;99.90
36212;DHT22;22247;48.586;13.492;2024-03-02T18:10:40;8.40;99.90
36212;DHT22;22247;48.586;13.492;2024-03-02T18:13:07;7.80;99.90
36212;DHT22;22247;48.586;13.492;2024-03-02T18:15:40;8.20;99.90
36212;DHT22;22247;48.586;13.492;2024-03-02T18:18:10;8.10;99.90
36212;DHT22;22247;48.586;13.492;2024-03-02T18:20:38;7.40;99.90
36212;DHT22;22247;48.586;13.492;2024-03-02T18:23:06;7.30;99.90
36212;DHT22;22247;48.586;13.492;2024-03-02T18:25:30;7.90;99.90
36212;DHT22;22247;48.586;13.492;2024-03-02T18:30:23;7.60;99.90
36212;DHT22;22247;48.586;13.492;2024-03-02T18:32:50;7.70;99.90
36212;DHT22;22247;48.586;13.492;2024-03-02T18:35:17;7.40;99.90
36212;DHT22;22247;48.586;13.492;2024-03-02T18:37:42;7.60;99.90
36212;DHT22;22247;48.586;13.492;2024-03-02T18:40:15;8.30;99.90
36212;DHT22;22247;48.586;13.492;2024-03-02T18:42:39;7.20;99.90
36212;DHT22;22247;48.586;13.492;2024-03-02T18:45:07;7.00;99.90
36212;DHT22;22247;48.586;13.492;2024-03-02T18:47:32;8.20;99.90
36212;DHT22;22247;48.586;13.492;2024-03-02T18:50:01;6.90;99.90
36212;DHT22;22247;48.586;13.492;2024-03-02T18:52:29;7.50;99.90
36212;DHT22;22247;48.586;13.492;2024-03-02T18:54:57;6.80;99.90
36212;DHT22;22247;48.586;13.492;2024-03-02T18:57:25;6.80;99.90
36212;DHT22;22247;48.586;13.492;2024-03-02T18:59:50;7.00;99.90
36212;DHT22;22247;48.586;13.492;2024-03-02T19:02:14;6.80;99.90
36212;DHT22;22247;48.586;13.492;2024-03-02T19:04:42;6.70;99.90
36212;DHT22;22247;48.586;13.492;2024-03-02T19:07:13;6.80;99.90
36212;DHT22;22247;48.586;13.492;2024-03-02T19:09:39;6.60;99.90
36212;DHT22;22247;48.586;13.492;2024-03-02T19:12:05;6.40;99.90
36212;DHT22;22247;48.586;13.492;2024-03-02T19:14:29;6.40;99.90
36212;DHT22;22247;48.586;13.492;2024-03-02T19:16:57;6.70;99.90
36212;DHT22;22247;48.586;13.492;2024-03-02T19:19:21;6.70;99.90
36212;DHT22;22247;48.586;13.492;2024-03-02T19:21:46;6.60;99.90
36212;DHT22;22247;48.586;13.492;2024-03-02T19:24:13;6.50;99.90
36212;DHT22;22247;48.586;13.492;2024-03-02T19:26:40;6.50;99.90
36212;DHT22;22247;48.586;13.492;2024-03-02T19:29:08;6.70;99.90
36212;DHT22;22247;48.586;13.492;2024-03-02T19:31:35;6.40;99.90
36212;DHT22;22247;48.586;13.492;2024-03-02T19:34:00;6.50;99.90
36212;DHT22;22247;48.586;13.492;2024-03-02T19:36:27;7.80;99.90
36212;DHT22;22247;48.586;13.492;2024-03-02T19:38:52;6.50;99.90
36212;DHT22;22247;48.586;13.492;2024-03-02T19:43:50;6.70;99.90
36212;DHT22;22247;48.586;13.492;2024-03-02T19:46:15;5.90;99.90
36212;DHT22;22247;48.586;13.492;2024-03-02T19:48:42;6.00;99.90
36212;DHT22;22247;48.586;13.492;2024-03-02T19:51:07;6.10;99.90
36212;DHT22;22247;48.586;13.492;2024-03-02T19:53:34;5.80;99.90
36212;DHT22;22247;48.586;13.492;2024-03-02T19:55:58;6.20;99.90
36212;DHT22;22247;48.586;13.492;2024-03-02T19:58:23;6.20;99.90
36212;DHT22;22247;48.586;13.492;2024-03-02T20:00:49;5.80;99.90
36212;DHT22;22247;48.586;13.492;2024-03-02T20:03:16;6.10;99.90
36212;DHT22;22247;48.586;13.492;2024-03-02T20:05:43;5.90;99.90
36212;DHT22;22247;48.586;13.492;2024-03-02T20:08:08;6.20;99.90
36212;DHT22;22247;48.586;13.492;2024-03-02T20:10:34;5.60;99.90
36212;DHT22;22247;48.586;13.492;2024-03-02T20:13:06;5.80;99.90
36212;DHT22;22247;48.586;13.492;2024-03-02T20:15:32;5.90;99.90
36212;DHT22;22247;48.586;13.492;2024-03-02T20:17:58;6.10;99.90
36212;DHT22;22247;48.586;13.492;2024-03-02T20:20:26;6.00;99.90
36212;DHT22;22247;48.586;13.492;2024-03-02T20:22:51;5.80;99.90
36212;DHT22;22247;48.586;13.492;2024-03-02T20:25:16;5.40;99.90
36212;DHT22;22247;48.586;13.492;2024-03-02T20:27:41;5.40;99.90
36212;DHT22;22247;48.586;13.492;2024-03-02T20:30:08;5.30;99.90
36212;DHT22;22247;48.586;13.492;2024-03-02T20:32:36;5.30;99.90
36212;DHT22;22247;48.586;13.492;2024-03-02T20:35:03;5.30;99.90
36212;DHT22;22247;48.586;13.492;2024-03-02T20:37:28;5.20;99.90
36212;DHT22;22247;48.586;13.492;2024-03-02T20:39:54;5.20;99.90
36212;DHT22;22247;48.586;13.492;2024-03-02T20:42:24;5.30;99.90
36212;DHT22;22247;48.586;13.492;2024-03-02T20:44:53;5.10;99.90
36212;DHT22;22247;48.586;13.492;2024-03-02T20:47:18;5.10;99.90
36212;DHT22;22247;48.586;13.492;2024-03-02T20:49:46;5.00;99.90
36212;DHT22;22247;48.586;13.492;2024-03-02T20:52:15;5.00;99.90
36212;DHT22;22247;48.586;13.492;2024-03-02T20:54:44;4.80;99.90
36212;DHT22;22247;48.586;13.492;2024-03-02T20:57:10;4.70;99.90
36212;DHT22;22247;48.586;13.492;2024-03-02T20:59:36;4.90;99.90
36212;DHT22;22247;48.586;13.492;2024-03-02T21:02:02;5.30;99.90
36212;DHT22;22247;48.586;13.492;2024-03-02T21:06:54;4.70;99.90
36212;DHT22;22247;48.586;13.492;2024-03-02T21:09:19;4.80;99.90
36212;DHT22;22247;48.586;13.492;2024-03-02T21:11:48;4.70;99.90
36212;DHT22;22247;48.586;13.492;2024-03-02T21:14:14;4.70;99.90
36212;DHT22;22247;48.586;13.492;2024-03-02T21:16:42;4.70;99.90
36212;DHT22;22247;48.586;13.492;2024-03-02T21:19:07;4.40;99.90
36212;DHT22;22247;48.586;13.492;2024-03-02T21:21:33;4.20;99.90
36212;DHT22;22247;48.586;13.492;2024-03-02T21:24:00;4.50;99.90
36212;DHT22;22247;48.586;13.492;2024-03-02T21:26:24;4.10;99.90
36212;DHT22;22247;48.586;13.492;2024-03-02T21:28:49;4.10;99.90
36212;DHT22;22247;48.586;13.492;2024-03-02T21:31:16;4.20;99.90
36212;DHT22;22247;48.586;13.492;2024-03-02T21:33:41;4.20;99.90
36212;DHT22;22247;48.586;13.492;2024-03-02T21:48:15;4.00;99.90
36212;DHT22;22247;48.586;13.492;2024-03-02T21:50:40;3.90;99.90
36212;DHT22;22247;48.586;13.492;2024-03-02T22:32:06;3.60;99.90
36212;DHT22;22247;48.586;13.492;2024-03-02T22:34:31;3.50;99.90
36212;DHT22;22247;48.586;13.492;2024-03-02T22:36:56;3.50;99.90
36212;DHT22;22247;48.586;13.492;2024-03-02T22:39:20;3.60;99.90
36212;DHT22;22247;48.586;13.492;2024-03-02T22:41:45;3.60;99.90
36212;DHT22;22247;48.586;13.492;2024-03-02T22:44:12;3.50;99.90
36212;DHT22;22247;48.586;13.492;2024-03-02T22:46:37;3.50;99.90
36212;DHT22;22247;48.586;13.492;2024-03-02T22:49:01;3.30;99.90
36212;DHT22;22247;48.586;13.492;2024-03-02T22:51:26;3.30;99.90
36212;DHT22;22247;48.586;13.492;2024-03-02T22:53:51;3.40;99.90
36212;DHT22;22247;48.586;13.492;2024-03-02T22:56:16;3.40;99.90
36212;DHT22;22247;48.586;13.492;2024-03-02T22:58:41;3.40;99.90
36212;DHT22;22247;48.586;13.492;2024-03-02T23:01:06;3.50;99.90
36212;DHT22;22247;48.586;13.492;2024-03-02T23:03:33;3.40;99.90
36212;DHT22;22247;48.586;13.492;2024-03-02T23:05:57;3.40;99.90